sensor_id;sensor_type;location;lat;lon;timestamp;P1;durP1;ratioP1;P2;durP2;ratioP2
49556;SDS011;35462;45.048;7.666;2023-03-26T00:08:48;6.65;;;3.25;;
49556;SDS011;35462;45.048;7.666;2023-03-26T00:23:54;4.95;;;2.60;;
49556;SDS011;35462;45.048;7.666;2023-03-26T00:39:01;10.57;;;2.47;;
49556;SDS011;35462;45.048;7.666;2023-03-26T00:54:07;5.93;;;2.75;;
49556;SDS011;35462;45.048;7.666;2023-03-26T01:09:14;5.43;;;2.60;;
49556;SDS011;35462;45.048;7.666;2023-03-26T01:24:21;4.65;;;2.30;;
49556;SDS011;35462;45.048;7.666;2023-03-26T01:54:36;3.42;;;2.20;;
49556;SDS011;35462;45.048;7.666;2023-03-26T02:09:42;7.97;;;4.00;;
49556;SDS011;35462;45.048;7.666;2023-03-26T02:24:50;5.47;;;3.38;;
49556;SDS011;35462;45.048;7.666;2023-03-26T02:39:54;6.85;;;2.67;;
49556;SDS011;35462;45.048;7.666;2023-03-26T02:55:06;5.05;;;3.33;;
49556;SDS011;35462;45.048;7.666;2023-03-26T03:10:12;7.38;;;2.78;;
49556;SDS011;35462;45.048;7.666;2023-03-26T03:25:26;5.35;;;2.60;;
49556;SDS011;35462;45.048;7.666;2023-03-26T03:40:31;5.15;;;2.00;;
49556;SDS011;35462;45.048;7.666;2023-03-26T03:55:36;5.43;;;2.65;;
49556;SDS011;35462;45.048;7.666;2023-03-26T04:10:41;5.43;;;2.47;;
49556;SDS011;35462;45.048;7.666;2023-03-26T04:25:50;5.33;;;2.43;;
49556;SDS011;35462;45.048;7.666;2023-03-26T05:11:35;6.13;;;2.77;;
49556;SDS011;35462;45.048;7.666;2023-03-26T05:26:40;8.68;;;3.42;;
49556;SDS011;35462;45.048;7.666;2023-03-26T05:41:44;4.20;;;2.75;;
49556;SDS011;35462;45.048;7.666;2023-03-26T05:56:49;4.95;;;3.20;;
49556;SDS011;35462;45.048;7.666;2023-03-26T06:11:56;4.38;;;3.25;;
49556;SDS011;35462;45.048;7.666;2023-03-26T06:27:01;5.22;;;3.65;;
49556;SDS011;35462;45.048;7.666;2023-03-26T06:42:08;8.20;;;2.58;;
49556;SDS011;35462;45.048;7.666;2023-03-26T06:57:15;4.80;;;3.40;;
49556;SDS011;35462;45.048;7.666;2023-03-26T07:12:23;4.43;;;2.85;;
49556;SDS011;35462;45.048;7.666;2023-03-26T08:28:27;5.70;;;2.42;;
49556;SDS011;35462;45.048;7.666;2023-03-26T11:30:42;6.60;;;3.50;;
49556;SDS011;35462;45.048;7.666;2023-03-26T11:45:51;10.45;;;4.20;;
49556;SDS011;35462;45.048;7.666;2023-03-26T12:00:56;6.93;;;1.35;;
49556;SDS011;35462;45.048;7.666;2023-03-26T12:31:12;4.85;;;1.50;;
49556;SDS011;35462;45.048;7.666;2023-03-26T13:46:51;2.55;;;1.10;;
49556;SDS011;35462;45.048;7.666;2023-03-26T14:02:02;2.42;;;1.05;;
49556;SDS011;35462;45.048;7.666;2023-03-26T14:17:16;3.08;;;0.85;;
49556;SDS011;35462;45.048;7.666;2023-03-26T14:47:36;5.73;;;1.47;;
49556;SDS011;35462;45.048;7.666;2023-03-26T15:02:54;4.53;;;1.48;;
49556;SDS011;35462;45.048;7.666;2023-03-26T15:18:13;4.10;;;1.60;;
49556;SDS011;35462;45.048;7.666;2023-03-26T16:19:24;7.45;;;2.20;;
49556;SDS011;35462;45.048;7.666;2023-03-26T16:34:26;10.18;;;2.75;;
49556;SDS011;35462;45.048;7.666;2023-03-26T17:04:50;7.53;;;1.30;;
49556;SDS011;35462;45.048;7.666;2023-03-26T17:35:33;1.65;;;0.15;;
49556;SDS011;35462;45.048;7.666;2023-03-26T18:05:52;0.15;;;0.08;;
49556;SDS011;35462;45.048;7.666;2023-03-26T18:21:00;7.50;;;0.30;;
49556;SDS011;35462;45.048;7.666;2023-03-26T18:36:09;0.47;;;0.13;;
49556;SDS011;35462;45.048;7.666;2023-03-26T18:51:14;0.82;;;0.40;;
49556;SDS011;35462;45.048;7.666;2023-03-26T19:06:25;1.75;;;0.40;;
49556;SDS011;35462;45.048;7.666;2023-03-26T19:21:30;2.72;;;0.40;;
49556;SDS011;35462;45.048;7.666;2023-03-26T19:36:35;0.95;;;0.30;;
49556;SDS011;35462;45.048;7.666;2023-03-26T19:52:02;1.17;;;0.22;;
49556;SDS011;35462;45.048;7.666;2023-03-26T20:22:24;0.43;;;0.20;;
49556;SDS011;35462;45.048;7.666;2023-03-26T20:37:29;1.35;;;0.22;;
49556;SDS011;35462;45.048;7.666;2023-03-26T20:52:32;0.63;;;0.10;;
49556;SDS011;35462;45.048;7.666;2023-03-26T21:07:37;1.00;;;0.30;;
49556;SDS011;35462;45.048;7.666;2023-03-26T21:38:02;1.10;;;0.30;;
49556;SDS011;35462;45.048;7.666;2023-03-26T21:53:08;0.20;;;0.00;;
49556;SDS011;35462;45.048;7.666;2023-03-26T22:23:25;6.67;;;0.27;;
49556;SDS011;35462;45.048;7.666;2023-03-26T22:38:36;0.40;;;0.10;;
49556;SDS011;35462;45.048;7.666;2023-03-26T22:53:40;0.20;;;0.10;;
49556;SDS011;35462;45.048;7.666;2023-03-26T23:08:44;0.20;;;0.00;;
49556;SDS011;35462;45.048;7.666;2023-03-26T23:23:48;0.52;;;0.40;;
49556;SDS011;35462;45.048;7.666;2023-03-26T23:38:54;1.58;;;0.98;;
49556;SDS011;35462;45.048;7.666;2023-03-26T23:53:58;2.63;;;1.40;;
